createdAt,value
2023-04-12T00:00:42.949Z,5.95
2023-04-12T00:03:10.725Z,7.38
2023-04-12T00:05:37.855Z,7.15
2023-04-12T00:08:05.212Z,5.97
2023-04-12T00:10:32.063Z,7.30
2023-04-12T00:12:58.901Z,6.53
2023-04-12T00:15:25.767Z,6.30
2023-04-12T00:17:52.933Z,6.57
2023-04-12T00:20:20.457Z,6.82
2023-04-12T00:22:47.284Z,6.35
2023-04-12T00:25:14.440Z,6.70
2023-04-12T00:27:42.017Z,6.50
2023-04-12T00:30:09.086Z,5.95
2023-04-12T00:32:35.847Z,6.07
2023-04-12T00:35:03.040Z,7.07
2023-04-12T00:37:29.924Z,7.07
2023-04-12T00:39:56.620Z,5.80
2023-04-12T00:42:23.707Z,6.30
2023-04-12T00:44:50.428Z,7.38
2023-04-12T00:47:17.196Z,6.43
2023-04-12T00:49:43.950Z,5.88
2023-04-12T00:52:14.963Z,7.03
2023-04-12T00:54:43.249Z,5.80
2023-04-12T00:57:10.082Z,6.75
2023-04-12T00:59:36.822Z,6.40
2023-04-12T01:02:03.838Z,6.50
2023-04-12T01:04:31.296Z,6.03
2023-04-12T01:07:23.724Z,6.13
2023-04-12T01:10:16.893Z,5.10
2023-04-12T01:13:12.564Z,6.07
2023-04-12T01:15:52.216Z,5.65
2023-04-12T01:18:24.386Z,4.72
2023-04-12T01:20:57.774Z,4.78
2023-04-12T01:23:49.266Z,5.97
2023-04-12T01:26:37.236Z,5.32
2023-04-12T01:29:16.204Z,5.13
2023-04-12T01:32:02.416Z,5.55
2023-04-12T01:34:31.728Z,5.50
2023-04-12T01:37:03.283Z,5.15
2023-04-12T01:39:32.792Z,4.55
2023-04-12T01:41:59.574Z,4.75
2023-04-12T01:44:26.244Z,6.00
2023-04-12T01:46:53.573Z,5.38
2023-04-12T01:49:24.525Z,6.25
2023-04-12T01:52:06.665Z,5.38
2023-04-12T01:54:38.802Z,5.53
2023-04-12T01:57:08.878Z,4.80
2023-04-12T01:59:40.980Z,5.55
2023-04-12T02:02:12.821Z,5.68
2023-04-12T02:04:42.938Z,6.07
2023-04-12T02:07:09.789Z,6.45
2023-04-12T02:09:39.760Z,5.32
2023-04-12T02:12:07.762Z,5.45
2023-04-12T02:14:38.064Z,5.93
2023-04-12T02:17:05.882Z,6.35
2023-04-12T02:19:32.885Z,5.03
2023-04-12T02:22:00.447Z,5.85
2023-04-12T02:24:27.425Z,5.68
2023-04-12T02:29:21.833Z,5.20
2023-04-12T02:31:48.966Z,6.60
2023-04-12T02:34:19.460Z,6.00
2023-04-12T02:36:49.418Z,6.75
2023-04-12T02:39:22.247Z,6.53
2023-04-12T02:41:49.543Z,7.47
2023-04-12T02:44:19.447Z,7.40
2023-04-12T02:46:46.135Z,7.07
2023-04-12T02:49:12.826Z,8.52
2023-04-12T02:51:39.990Z,9.18
2023-04-12T02:54:07.855Z,8.15
2023-04-12T02:56:39.762Z,8.52
2023-04-12T02:59:08.037Z,8.00
2023-04-12T03:01:36.242Z,8.43
2023-04-12T03:04:03.070Z,7.93
2023-04-12T03:06:30.624Z,7.88
2023-04-12T03:08:58.637Z,8.02
2023-04-12T03:11:27.700Z,8.82
2023-04-12T03:13:55.754Z,9.20
2023-04-12T03:16:25.956Z,7.47
2023-04-12T03:18:55.076Z,8.93
2023-04-12T03:21:21.766Z,7.45
2023-04-12T03:23:48.891Z,8.10
2023-04-12T03:26:16.295Z,8.43
2023-04-12T03:28:43.018Z,7.60
2023-04-12T03:31:10.788Z,9.68
2023-04-12T03:33:38.399Z,8.13
2023-04-12T03:36:06.295Z,10.10
2023-04-12T03:38:33.544Z,8.00
2023-04-12T03:41:00.273Z,8.70
2023-04-12T03:43:27.336Z,8.18
2023-04-12T03:45:54.470Z,8.23
2023-04-12T03:48:22.723Z,8.13
2023-04-12T03:50:59.848Z,6.72
2023-04-12T03:53:33.141Z,8.80
2023-04-12T03:56:00.708Z,7.60
2023-04-12T03:58:27.437Z,7.22
2023-04-12T04:00:54.205Z,6.80
2023-04-12T04:03:27.268Z,7.78
2023-04-12T04:05:54.149Z,7.82
2023-04-12T04:08:21.416Z,7.45
2023-04-12T04:10:48.173Z,8.95
2023-04-12T04:13:17.867Z,7.55
2023-04-12T04:15:50.039Z,7.45
2023-04-12T04:18:17.144Z,9.48
2023-04-12T04:20:46.372Z,8.70
2023-04-12T04:23:13.403Z,8.95
2023-04-12T04:28:23.830Z,10.88
2023-04-12T04:30:51.759Z,9.48
2023-04-12T04:33:20.408Z,11.70
2023-04-12T04:35:52.039Z,8.85
2023-04-12T04:38:26.056Z,10.00
2023-04-12T04:40:58.826Z,8.80
2023-04-12T04:43:27.031Z,8.45
2023-04-12T04:45:57.647Z,8.13
2023-04-12T04:48:25.333Z,9.20
2023-04-12T04:50:55.716Z,12.52
2023-04-12T04:53:28.911Z,11.65
2023-04-12T04:56:00.017Z,11.13
2023-04-12T04:58:30.082Z,10.32
2023-04-12T05:00:58.015Z,10.82
2023-04-12T05:03:31.299Z,10.00
2023-04-12T05:05:58.144Z,9.52
2023-04-12T05:08:28.228Z,7.45
2023-04-12T05:11:00.228Z,6.78
2023-04-12T05:13:32.165Z,6.05
2023-04-12T05:15:58.907Z,7.88
2023-04-12T05:18:25.748Z,5.60
2023-04-12T05:20:52.480Z,4.82
2023-04-12T05:23:22.291Z,6.10
2023-04-12T05:25:51.793Z,5.50
2023-04-12T05:28:20.618Z,5.22
2023-04-12T05:30:47.873Z,5.10
2023-04-12T05:33:16.176Z,4.90
2023-04-12T05:35:42.931Z,4.20
2023-04-12T05:38:10.040Z,3.83
2023-04-12T05:40:36.808Z,5.47
2023-04-12T05:43:03.797Z,5.80
2023-04-12T05:45:30.579Z,5.15
2023-04-12T05:47:57.309Z,6.70
2023-04-12T05:50:24.297Z,4.82
2023-04-12T05:52:53.813Z,4.28
2023-04-12T05:55:21.658Z,4.38
2023-04-12T05:57:48.465Z,4.93
2023-04-12T06:00:20.031Z,4.50
2023-04-12T06:02:50.853Z,4.55
2023-04-12T06:05:18.139Z,3.25
2023-04-12T06:07:49.427Z,4.88
2023-04-12T06:10:17.526Z,4.00
2023-04-12T06:12:45.689Z,4.38
2023-04-12T06:15:12.362Z,3.88
2023-04-12T06:17:39.343Z,3.65
2023-04-12T06:20:10.005Z,4.90
2023-04-12T06:22:37.942Z,3.72
2023-04-12T06:25:05.353Z,5.07
2023-04-12T06:27:32.536Z,6.00
2023-04-12T06:29:59.285Z,5.18
2023-04-12T06:32:26.660Z,3.88
2023-04-12T06:34:53.636Z,4.10
2023-04-12T06:37:22.240Z,5.17
2023-04-12T06:39:49.308Z,4.90
2023-04-12T06:42:17.802Z,4.50
2023-04-12T06:44:44.825Z,4.00
2023-04-12T06:47:11.837Z,4.30
2023-04-12T06:49:39.935Z,4.30
2023-04-12T06:52:06.626Z,4.40
2023-04-12T06:54:36.495Z,4.73
2023-04-12T06:57:03.387Z,3.77
2023-04-12T06:59:30.125Z,4.13
2023-04-12T07:01:56.890Z,4.50
2023-04-12T07:04:24.076Z,3.00
2023-04-12T07:06:51.029Z,4.37
2023-04-12T07:09:20.185Z,4.13
2023-04-12T07:11:47.785Z,4.70
2023-04-12T07:14:14.496Z,4.30
2023-04-12T07:16:42.976Z,4.87
2023-04-12T07:19:09.700Z,4.80
2023-04-12T07:21:36.498Z,5.23
2023-04-12T07:24:03.589Z,5.33
2023-04-12T07:26:31.573Z,5.37
2023-04-12T07:28:58.452Z,5.20
2023-04-12T07:31:26.071Z,5.83
2023-04-12T07:33:52.910Z,5.60
2023-04-12T07:36:21.662Z,4.97
2023-04-12T07:38:49.644Z,5.50
2023-04-12T07:41:18.890Z,4.83
2023-04-12T07:43:45.789Z,4.40
2023-04-12T07:46:12.631Z,4.60
2023-04-12T07:48:39.353Z,4.77
2023-04-12T07:51:06.349Z,3.70
2023-04-12T07:53:33.072Z,4.27
2023-04-12T07:55:59.860Z,4.43
2023-04-12T07:58:26.590Z,3.83
2023-04-12T08:00:54.138Z,3.47
2023-04-12T08:03:21.093Z,2.80
2023-04-12T08:05:55.575Z,3.07
2023-04-12T08:08:23.015Z,2.57
2023-04-12T08:10:51.114Z,3.20
2023-04-12T08:13:19.175Z,2.77
2023-04-12T08:15:47.960Z,3.73
2023-04-12T08:18:15.328Z,2.27
2023-04-12T08:20:44.644Z,2.20
2023-04-12T08:23:12.484Z,2.37
2023-04-12T08:25:39.702Z,4.17
2023-04-12T08:28:09.316Z,2.60
2023-04-12T08:30:36.774Z,2.60
2023-04-12T08:33:04.153Z,2.70
2023-04-12T08:35:31.485Z,2.30
2023-04-12T08:37:58.665Z,4.60
2023-04-12T08:40:26.014Z,3.23
2023-04-12T08:42:53.216Z,2.00
2023-04-12T08:45:24.150Z,2.23
2023-04-12T08:47:51.026Z,1.87
2023-04-12T08:50:19.062Z,3.00
2023-04-12T08:52:48.771Z,2.10
2023-04-12T08:55:15.627Z,2.87
2023-04-12T08:57:42.946Z,3.17
2023-04-12T09:00:10.881Z,2.20
2023-04-12T09:02:38.951Z,2.90
2023-04-12T09:05:06.893Z,2.23
2023-04-12T09:07:34.441Z,2.00
2023-04-12T09:10:01.471Z,2.40
2023-04-12T09:12:28.442Z,2.30
2023-04-12T09:15:08.830Z,3.00
2023-04-12T09:17:39.466Z,3.00
2023-04-12T09:20:12.156Z,1.90
2023-04-12T09:22:45.551Z,2.23
2023-04-12T09:25:13.199Z,3.53
2023-04-12T09:27:50.926Z,2.80
2023-04-12T09:30:19.449Z,2.30
2023-04-12T09:32:49.779Z,3.37
2023-04-12T09:35:16.855Z,4.63
2023-04-12T09:37:44.039Z,2.97
2023-04-12T09:40:11.871Z,5.10
2023-04-12T09:42:54.726Z,3.47
2023-04-12T09:45:26.418Z,2.60
2023-04-12T09:47:54.934Z,2.80
2023-04-12T09:50:27.318Z,2.77
2023-04-12T09:52:56.150Z,2.37
2023-04-12T09:55:25.548Z,1.80
2023-04-12T09:57:54.491Z,2.37
2023-04-12T10:00:27.042Z,2.63
2023-04-12T10:02:55.973Z,3.83
2023-04-12T10:05:28.307Z,3.27
2023-04-12T10:07:56.148Z,2.70
2023-04-12T10:10:23.515Z,2.97
2023-04-12T10:12:51.353Z,2.83
2023-04-12T10:15:21.421Z,2.37
2023-04-12T10:17:55.639Z,2.57
2023-04-12T10:20:27.049Z,3.50
2023-04-12T10:22:56.881Z,3.10
2023-04-12T10:25:26.031Z,2.43
2023-04-12T10:27:53.601Z,2.10
2023-04-12T10:30:28.284Z,2.70
2023-04-12T10:33:10.168Z,2.47
2023-04-12T10:35:53.267Z,2.20
2023-04-12T10:38:20.674Z,1.87
2023-04-12T10:41:13.377Z,1.20
2023-04-12T10:43:47.603Z,1.60
2023-04-12T10:46:41.659Z,2.03
2023-04-12T10:49:09.857Z,2.00
2023-04-12T10:51:36.992Z,1.60
2023-04-12T10:54:15.549Z,1.87
2023-04-12T10:56:43.807Z,2.20
2023-04-12T10:59:12.182Z,1.77
2023-04-12T11:01:41.644Z,1.70
2023-04-12T11:04:13.843Z,1.70
2023-04-12T11:06:53.383Z,2.00
2023-04-12T11:09:34.071Z,2.00
2023-04-12T11:12:09.550Z,1.70
2023-04-12T11:14:38.604Z,1.97
2023-04-12T11:17:08.869Z,2.53
2023-04-12T11:19:39.892Z,2.37
2023-04-12T11:22:08.690Z,2.20
2023-04-12T11:24:39.919Z,2.03
2023-04-12T11:27:06.982Z,2.10
2023-04-12T11:29:34.393Z,2.13
2023-04-12T11:32:05.358Z,2.83
2023-04-12T11:34:36.391Z,2.20
2023-04-12T11:37:06.870Z,1.93
2023-04-12T11:39:34.765Z,2.00
2023-04-12T11:42:03.354Z,2.10
2023-04-12T11:44:44.159Z,2.07
2023-04-12T11:47:24.154Z,1.40
2023-04-12T11:49:59.428Z,1.90
2023-04-12T11:52:33.885Z,2.23
2023-04-12T11:55:04.756Z,2.47
2023-04-12T11:57:31.934Z,3.65
2023-04-12T12:00:01.371Z,1.52
2023-04-12T12:02:34.620Z,2.15
2023-04-12T12:05:06.880Z,1.73
2023-04-12T12:07:34.883Z,1.75
2023-04-12T12:10:01.963Z,1.90
2023-04-12T12:12:30.159Z,1.95
2023-04-12T12:15:01.334Z,2.85
2023-04-12T12:17:28.903Z,2.45
2023-04-12T12:19:59.396Z,2.10
2023-04-12T12:22:26.650Z,2.25
2023-04-12T12:25:00.972Z,2.10
2023-04-12T12:27:31.253Z,2.67
2023-04-12T12:30:01.588Z,2.50
2023-04-12T12:32:37.500Z,2.13
2023-04-12T12:35:09.380Z,2.80
2023-04-12T12:37:36.954Z,2.58
2023-04-12T12:40:13.822Z,3.33
2023-04-12T12:42:48.810Z,3.50
2023-04-12T12:45:17.209Z,3.45
2023-04-12T12:48:02.587Z,3.05
2023-04-12T12:50:31.882Z,3.85
2023-04-12T12:53:00.875Z,3.63
2023-04-12T12:55:30.268Z,3.10
2023-04-12T13:00:30.223Z,2.17
2023-04-12T13:02:58.927Z,2.80
2023-04-12T13:05:26.016Z,3.70
2023-04-12T13:07:53.131Z,3.15
2023-04-12T13:10:20.400Z,1.73
2023-04-12T13:12:47.564Z,1.83
2023-04-12T13:17:45.389Z,1.55
2023-04-12T13:20:12.553Z,4.40
2023-04-12T13:22:39.705Z,2.75
2023-04-12T13:25:07.169Z,2.55
2023-04-12T13:27:35.265Z,2.28
2023-04-12T13:30:02.074Z,2.90
2023-04-12T13:32:29.293Z,1.60
2023-04-12T13:34:56.115Z,2.42
2023-04-12T13:37:25.274Z,2.05
2023-04-12T13:39:52.834Z,2.05
2023-04-12T13:42:20.059Z,1.90
2023-04-12T13:44:48.694Z,3.97
2023-04-12T13:47:16.345Z,2.53
2023-04-12T13:49:43.210Z,3.83
2023-04-12T13:52:10.147Z,2.95
2023-04-12T13:54:37.931Z,2.03
2023-04-12T13:57:05.303Z,2.10
2023-04-12T13:59:34.615Z,2.17
2023-04-12T14:02:01.973Z,1.60
2023-04-12T14:04:30.046Z,2.80
2023-04-12T14:06:57.529Z,2.55
2023-04-12T14:09:32.100Z,4.10
2023-04-12T14:12:02.041Z,2.90
2023-04-12T14:14:28.755Z,2.33
2023-04-12T14:17:01.292Z,1.73
2023-04-12T14:19:28.103Z,9.90
2023-04-12T14:21:55.366Z,1.60
2023-04-12T14:24:23.369Z,2.25
2023-04-12T14:26:53.778Z,3.63
2023-04-12T14:29:22.103Z,2.70
2023-04-12T14:31:49.067Z,2.85
2023-04-12T14:34:18.098Z,2.85
2023-04-12T14:36:45.211Z,1.73
2023-04-12T14:39:14.096Z,1.92
2023-04-12T14:41:42.228Z,2.55
2023-04-12T14:44:10.043Z,2.22
2023-04-12T14:46:39.177Z,1.88
2023-04-12T14:49:07.021Z,2.83
2023-04-12T14:51:35.969Z,1.98
2023-04-12T14:54:02.938Z,2.60
2023-04-12T14:56:35.646Z,3.40
2023-04-12T14:59:05.723Z,2.20
2023-04-12T15:01:33.919Z,2.45
2023-04-12T15:04:02.869Z,3.42
2023-04-12T15:06:33.655Z,1.65
2023-04-12T15:09:00.960Z,3.53
2023-04-12T15:11:29.305Z,3.42
2023-04-12T15:13:57.463Z,2.83
2023-04-12T15:16:24.974Z,3.45
2023-04-12T15:18:53.090Z,2.38
2023-04-12T15:21:20.377Z,2.00
2023-04-12T15:23:47.843Z,3.35
2023-04-12T15:26:14.733Z,2.45
2023-04-12T15:28:42.690Z,2.30
2023-04-12T15:31:11.997Z,2.25
2023-04-12T15:33:39.402Z,1.80
2023-04-12T15:36:07.219Z,2.55
2023-04-12T15:38:42.206Z,3.42
2023-04-12T15:41:09.551Z,3.85
2023-04-12T15:43:39.824Z,2.30
2023-04-12T15:46:06.862Z,2.65
2023-04-12T15:48:35.752Z,2.17
2023-04-12T15:51:04.926Z,2.25
2023-04-12T15:53:33.320Z,1.75
2023-04-12T15:56:00.720Z,2.65
2023-04-12T15:58:29.004Z,2.70
2023-04-12T16:00:57.545Z,5.05
2023-04-12T16:03:26.067Z,3.55
2023-04-12T16:05:55.084Z,2.50
2023-04-12T16:08:24.728Z,5.13
2023-04-12T16:10:51.610Z,3.08
2023-04-12T16:13:18.857Z,2.80
2023-04-12T16:15:46.115Z,2.33
2023-04-12T16:18:13.362Z,2.38
2023-04-12T16:20:43.126Z,1.85
2023-04-12T16:23:09.872Z,2.33
2023-04-12T16:25:38.166Z,3.92
2023-04-12T16:28:06.132Z,2.25
2023-04-12T16:30:33.079Z,6.70
2023-04-12T16:33:00.621Z,3.35
2023-04-12T16:35:27.516Z,3.25
2023-04-12T16:37:55.591Z,5.18
2023-04-12T16:40:22.660Z,3.15
2023-04-12T16:42:49.863Z,5.40
2023-04-12T16:45:16.676Z,5.13
2023-04-12T16:47:46.959Z,3.35
2023-04-12T16:50:14.182Z,4.63
2023-04-12T16:52:42.906Z,5.95
2023-04-12T16:55:13.575Z,3.75
2023-04-12T16:57:42.192Z,4.20
2023-04-12T17:00:19.729Z,4.22
2023-04-12T17:02:51.868Z,5.57
2023-04-12T17:05:21.043Z,8.70
2023-04-12T17:07:50.120Z,5.68
2023-04-12T17:10:24.840Z,4.25
2023-04-12T17:12:57.503Z,3.10
2023-04-12T17:15:25.722Z,3.58
2023-04-12T17:17:53.886Z,5.70
2023-04-12T17:20:26.033Z,4.00
2023-04-12T17:22:53.281Z,5.70
2023-04-12T17:25:21.903Z,4.15
2023-04-12T17:27:53.736Z,7.13
2023-04-12T17:30:24.655Z,5.85
2023-04-12T17:32:51.870Z,6.40
2023-04-12T17:35:19.209Z,5.93
2023-04-12T17:37:46.926Z,7.80
2023-04-12T17:40:14.342Z,8.80
2023-04-12T17:42:43.698Z,4.90
2023-04-12T17:45:12.873Z,4.80
2023-04-12T17:47:41.689Z,3.80
2023-04-12T17:50:10.865Z,5.18
2023-04-12T17:52:38.783Z,4.10
2023-04-12T17:55:07.563Z,4.05
2023-04-12T17:57:35.032Z,7.35
2023-04-12T18:00:02.014Z,4.70
2023-04-12T18:02:29.583Z,4.85
2023-04-12T18:04:56.903Z,4.80
2023-04-12T18:07:26.416Z,3.88
2023-04-12T18:09:53.147Z,4.47
2023-04-12T18:12:22.147Z,6.22
2023-04-12T18:14:49.718Z,8.18
2023-04-12T18:17:16.571Z,9.38
2023-04-12T18:19:43.292Z,5.35
2023-04-12T18:22:10.522Z,6.82
2023-04-12T18:24:38.504Z,7.07
2023-04-12T18:27:06.685Z,5.43
2023-04-12T18:29:33.457Z,6.80
2023-04-12T18:32:00.350Z,7.65
2023-04-12T18:34:27.588Z,10.30
2023-04-12T18:36:54.404Z,5.80
2023-04-12T18:39:22.454Z,8.35
2023-04-12T18:41:49.548Z,7.97
2023-04-12T18:44:22.527Z,6.82
2023-04-12T18:46:49.444Z,6.60
2023-04-12T18:49:18.626Z,5.90
2023-04-12T18:51:50.224Z,7.13
2023-04-12T18:54:18.147Z,6.88
2023-04-12T18:56:48.237Z,7.90
2023-04-12T18:59:18.180Z,9.02
2023-04-12T19:01:45.680Z,7.55
2023-04-12T19:04:12.781Z,7.72
2023-04-12T19:06:44.246Z,7.40
2023-04-12T19:09:11.336Z,6.32
2023-04-12T19:11:38.427Z,7.90
2023-04-12T19:14:10.637Z,6.95
2023-04-12T19:16:39.067Z,9.27
2023-04-12T19:19:06.520Z,6.00
2023-04-12T19:21:34.562Z,4.90
2023-04-12T19:24:01.458Z,6.28
2023-04-12T19:26:30.372Z,5.97
2023-04-12T19:29:00.107Z,6.85
2023-04-12T19:31:26.844Z,8.30
2023-04-12T19:33:57.696Z,5.85
2023-04-12T19:36:24.879Z,5.90
2023-04-12T19:38:53.196Z,5.70
2023-04-12T19:41:26.046Z,6.80
2023-04-12T19:43:53.321Z,7.32
2023-04-12T19:46:25.597Z,6.95
2023-04-12T19:48:54.177Z,6.60
2023-04-12T19:51:28.579Z,9.05
2023-04-12T19:54:00.447Z,6.07
2023-04-12T19:56:31.094Z,7.78
2023-04-12T19:58:58.474Z,7.22
2023-04-12T20:01:26.897Z,9.15
2023-04-12T20:03:53.775Z,7.45
2023-04-12T20:06:21.020Z,10.55
2023-04-12T20:08:47.810Z,10.20
2023-04-12T20:11:15.114Z,9.57
2023-04-12T20:13:42.972Z,10.13
2023-04-12T20:16:10.020Z,10.02
2023-04-12T20:18:37.285Z,9.25
2023-04-12T20:21:06.571Z,8.63
2023-04-12T20:23:33.223Z,11.45
2023-04-12T20:26:00.608Z,8.82
2023-04-12T20:28:28.560Z,11.13
2023-04-12T20:30:56.041Z,11.85
2023-04-12T20:33:22.827Z,14.68
2023-04-12T20:35:51.252Z,11.30
2023-04-12T20:38:19.329Z,11.52
2023-04-12T20:40:46.307Z,10.70
2023-04-12T20:43:13.044Z,11.43
2023-04-12T20:45:40.613Z,9.07
2023-04-12T20:48:08.037Z,9.70
2023-04-12T20:50:35.757Z,14.70
2023-04-12T20:53:02.898Z,12.27
2023-04-12T20:55:34.067Z,10.73
2023-04-12T20:58:04.386Z,12.85
2023-04-12T21:00:32.723Z,14.00
2023-04-12T21:03:03.216Z,16.35
2023-04-12T21:05:34.687Z,14.05
2023-04-12T21:08:02.109Z,14.02
2023-04-12T21:10:29.013Z,11.25
2023-04-12T21:12:56.120Z,11.70
2023-04-12T21:15:23.492Z,9.98
2023-04-12T21:17:52.746Z,9.07
2023-04-12T21:20:20.037Z,13.15
2023-04-12T21:22:47.967Z,12.82
2023-04-12T21:25:16.255Z,11.85
2023-04-12T21:27:43.759Z,11.13
2023-04-12T21:30:11.319Z,11.63
2023-04-12T21:32:38.472Z,11.15
2023-04-12T21:35:07.569Z,10.20
2023-04-12T21:37:35.911Z,12.40
2023-04-12T21:40:09.934Z,12.63
2023-04-12T21:42:38.103Z,11.90
2023-04-12T21:45:13.068Z,13.07
2023-04-12T21:47:41.295Z,11.68
2023-04-12T21:50:10.008Z,11.15
2023-04-12T21:52:37.496Z,14.80
2023-04-12T21:55:06.740Z,11.45
2023-04-12T21:57:35.393Z,12.05
2023-04-12T22:00:05.697Z,14.05
2023-04-12T22:02:34.248Z,12.80
2023-04-12T22:05:01.097Z,12.38
2023-04-12T22:07:28.548Z,15.15
2023-04-12T22:09:55.896Z,13.65
2023-04-12T22:12:25.850Z,12.98
2023-04-12T22:14:52.980Z,15.45
2023-04-12T22:17:21.391Z,13.70
2023-04-12T22:19:48.919Z,13.38
2023-04-12T22:22:16.090Z,13.60
2023-04-12T22:24:44.131Z,14.60
2023-04-12T22:27:10.872Z,13.88
2023-04-12T22:29:40.903Z,11.70
2023-04-12T22:32:08.966Z,11.75
2023-04-12T22:34:39.231Z,11.88
2023-04-12T22:37:08.615Z,11.85
2023-04-12T22:39:38.084Z,13.32
2023-04-12T22:42:06.325Z,14.40
2023-04-12T22:44:38.425Z,13.30
2023-04-12T22:47:08.538Z,11.63
2023-04-12T22:49:45.146Z,12.25
2023-04-12T22:52:12.550Z,12.50
2023-04-12T22:54:40.321Z,12.55
2023-04-12T22:57:07.565Z,14.10
2023-04-12T22:59:34.882Z,13.35
2023-04-12T23:02:02.325Z,13.23
2023-04-12T23:04:29.135Z,13.95
2023-04-12T23:06:55.866Z,12.63
2023-04-12T23:09:23.058Z,12.77
2023-04-12T23:11:51.967Z,12.68
2023-04-12T23:14:18.700Z,13.90
2023-04-12T23:16:46.263Z,16.52
2023-04-12T23:19:14.746Z,15.60
2023-04-12T23:21:42.652Z,14.45
2023-04-12T23:24:12.117Z,15.80
2023-04-12T23:26:39.452Z,13.30
2023-04-12T23:29:06.223Z,16.90
2023-04-12T23:31:33.616Z,13.35
2023-04-12T23:34:06.488Z,13.18
2023-04-12T23:36:33.830Z,14.38
2023-04-12T23:39:01.847Z,13.07
2023-04-12T23:41:31.864Z,14.02
2023-04-12T23:43:59.019Z,14.43
2023-04-12T23:46:27.293Z,12.52
2023-04-12T23:48:54.467Z,14.13
2023-04-12T23:51:22.145Z,15.40
2023-04-12T23:53:48.865Z,12.73
2023-04-12T23:56:15.852Z,11.90
2023-04-12T23:58:43.130Z,12.60
